Birsk, Russia
Current Conditions -  °F | °C
As of 12:30 AM on Saturday 01 Nov 2014 (Local Time) from UWUU Reporting Station
Broken Clouds Broken Clouds  
Wind Chill: 36°   Ceiling: 4600
Heat Index: 39°   Visibility: 6mi
Dew Point: 27°   Wind: 4mph
Humidity: 61%   Direction: 210°SSW
Pressure: 30.06"   Gusts: NA
Location:  55.42°N, 55.54°E
Report Text: UWUU 311930Z 21002MPS 170V250 9999 BKN046 04/M03 Q1018 141///50NOSIG RMK QFE752/1003
Loading
Personal Weather Stations






























Interactive Weather Map New forecast layout! Learn more

10-Day Weather Forecast

Advertisements
Track Severe Weather on mobile